Time;durP1;ratioP1;P1;durP2;ratioP2;P2;SDS_P1;SDS_P2;PMS_P1;PMS_P2;Temp;Humidity;BMP_temperature;BMP_pressure;BME280_temperature;BME280_humidity;BME280_pressure;Samples;Min_cycle;Max_cycle;Signal;HPM_P1;HPM_P2
2023/10/01 00:00:26;;;;;;;4.03;1.83;;;16.30;99.90;;;;;;5037598;28;20228;-75
2023/10/01 00:02:56;;;;;;;5.18;2.08;;;16.20;99.90;;;;;;5039311;28;20211;-74
2023/10/01 00:05:24;;;;;;;4.63;1.77;;;16.20;99.90;;;;;;5028166;28;20295;-76
2023/10/01 00:07:51;;;;;;;3.67;1.90;;;16.20;99.90;;;;;;5035057;28;20227;-75
2023/10/01 00:10:18;;;;;;;4.95;1.58;;;16.20;99.90;;;;;;5037960;28;20254;-76
2023/10/01 00:12:46;;;;;;;3.78;1.73;;;16.10;99.90;;;;;;5040022;28;20238;-76
2023/10/01 00:15:17;;;;;;;5.47;2.10;;;16.00;99.90;;;;;;5037997;28;20631;-75
2023/10/01 00:17:45;;;;;;;8.43;2.08;;;16.00;99.90;;;;;;5040769;28;20209;-76
2023/10/01 00:20:20;;;;;;;4.22;2.00;;;16.00;99.90;;;;;;5038658;28;20590;-76
2023/10/01 00:22:48;;;;;;;5.78;2.08;;;16.00;99.90;;;;;;5039782;28;20234;-76
2023/10/01 00:25:15;;;;;;;5.00;1.83;;;16.10;99.90;;;;;;5040851;28;20208;-76
2023/10/01 00:27:40;;;;;;;3.97;1.52;;;16.10;99.90;;;;;;5040291;28;20665;-76
2023/10/01 00:30:09;;;;;;;8.55;3.05;;;16.10;99.90;;;;;;5039366;28;20238;-76
2023/10/01 00:32:39;;;;;;;4.80;2.00;;;16.10;99.90;;;;;;5032221;28;20204;-76
2023/10/01 00:35:06;;;;;;;3.42;1.70;;;16.10;99.90;;;;;;5033651;28;20270;-76
2023/10/01 00:37:33;;;;;;;4.15;1.88;;;16.00;99.90;;;;;;5034525;28;20279;-76
2023/10/01 00:39:59;;;;;;;3.92;2.05;;;16.10;99.90;;;;;;5033297;28;20938;-76
2023/10/01 00:42:31;;;;;;;5.35;1.92;;;16.00;99.90;;;;;;5036221;28;20290;-75
2023/10/01 00:44:57;;;;;;;6.00;1.80;;;16.00;99.90;;;;;;5039582;28;20301;-76
2023/10/01 00:47:26;;;;;;;7.03;3.05;;;16.10;99.90;;;;;;5039966;28;20346;-75
2023/10/01 00:49:52;;;;;;;3.90;1.58;;;16.10;99.90;;;;;;5037675;28;20200;-76
2023/10/01 00:52:19;;;;;;;3.58;1.90;;;16.00;99.90;;;;;;5025309;28;20595;-77
2023/10/01 00:54:47;;;;;;;5.32;2.50;;;16.00;99.90;;;;;;5037215;28;20420;-77
2023/10/01 00:57:17;;;;;;;4.63;2.33;;;16.00;99.90;;;;;;5038105;28;20172;-76
2023/10/01 00:59:43;;;;;;;7.20;2.30;;;15.90;99.90;;;;;;5039940;28;20621;-75
2023/10/01 01:02:15;;;;;;;5.50;2.30;;;16.00;99.90;;;;;;5036541;28;20222;-77
2023/10/01 01:04:45;;;;;;;5.50;2.40;;;15.90;99.90;;;;;;5038328;28;20199;-75
2023/10/01 01:07:14;;;;;;;9.60;2.40;;;15.90;99.90;;;;;;5039072;28;20789;-75
2023/10/01 01:09:43;;;;;;;4.50;2.47;;;15.90;99.90;;;;;;5038947;28;20598;-75
2023/10/01 01:12:09;;;;;;;7.47;2.47;;;15.90;99.90;;;;;;5038417;28;20168;-76
2023/10/01 01:14:36;;;;;;;3.33;2.38;;;15.90;99.90;;;;;;5030382;28;21088;-76
2023/10/01 01:17:03;;;;;;;4.97;1.92;;;15.90;99.90;;;;;;5031306;28;20231;-76
2023/10/01 01:19:29;;;;;;;5.45;2.55;;;15.90;99.90;;;;;;5038358;28;20283;-76
2023/10/01 01:21:56;;;;;;;4.38;2.53;;;15.90;99.90;;;;;;5039057;28;20306;-73
2023/10/01 01:24:24;;;;;;;7.35;2.72;;;15.80;99.90;;;;;;5039541;28;20202;-78
2023/10/01 01:26:51;;;;;;;5.13;2.00;;;15.70;99.90;;;;;;5041437;28;20693;-75
2023/10/01 01:29:29;;;;;;;7.13;2.80;;;15.70;99.90;;;;;;5035997;28;20216;-75
2023/10/01 01:32:07;;;;;;;6.93;2.05;;;15.70;99.90;;;;;;5034251;28;20215;-75
2023/10/01 01:34:36;;;;;;;3.97;2.03;;;15.70;99.90;;;;;;5033916;28;20210;-75
2023/10/01 01:37:05;;;;;;;5.85;2.53;;;15.70;99.90;;;;;;5035029;28;20223;-76
2023/10/01 01:39:54;;;;;;;6.32;2.05;;;15.70;99.90;;;;;;5035100;28;20182;-76
2023/10/01 01:42:21;;;;;;;4.50;2.40;;;15.70;99.90;;;;;;5041361;28;20203;-75
2023/10/01 01:45:15;;;;;;;5.68;3.13;;;15.60;99.90;;;;;;5039090;28;20226;-75
2023/10/01 01:47:36;;;;;;;4.30;2.05;;;15.70;99.90;;;;;;5039369;28;20199;-75
2023/10/01 01:50:17;;;;;;;7.30;2.75;;;15.70;99.90;;;;;;5038092;28;20847;-74
2023/10/01 01:52:48;;;;;;;3.88;2.17;;;15.70;99.90;;;;;;5038971;28;20204;-76
2023/10/01 01:55:23;;;;;;;4.35;2.03;;;15.80;99.90;;;;;;5041891;28;20208;-75
2023/10/01 01:58:24;;;;;;;6.28;2.83;;;15.70;99.90;;;;;;5028798;28;20212;-75
2023/10/01 02:03:47;;;;;;;5.20;2.60;;;15.60;99.90;;;;;;5028406;28;20725;-76
2023/10/01 02:06:14;;;;;;;6.43;2.53;;;15.60;99.90;;;;;;5039610;28;20186;-74
2023/10/01 02:08:47;;;;;;;6.82;2.80;;;15.60;99.90;;;;;;5031676;28;20199;-76
2023/10/01 02:11:14;;;;;;;6.97;2.35;;;15.70;99.90;;;;;;5034205;28;20212;-76
2023/10/01 02:13:41;;;;;;;7.85;3.13;;;15.70;99.90;;;;;;5038467;28;20214;-75
2023/10/01 02:16:30;;;;;;;6.65;2.92;;;15.70;99.90;;;;;;5036651;28;20220;-74
2023/10/01 02:19:17;;;;;;;6.32;3.03;;;15.70;99.90;;;;;;5039595;28;20763;-74
2023/10/01 02:22:05;;;;;;;9.38;3.00;;;15.70;99.90;;;;;;5035995;28;20219;-75
2023/10/01 02:24:44;;;;;;;4.45;2.88;;;15.50;99.90;;;;;;5039056;28;20313;-75
2023/10/01 02:27:20;;;;;;;8.20;2.95;;;15.60;99.90;;;;;;5025493;28;20183;-75
2023/10/01 02:30:09;;;;;;;5.93;3.17;;;15.60;99.90;;;;;;5032333;28;20212;-75
2023/10/01 02:32:32;;;;;;;10.75;2.88;;;15.70;99.90;;;;;;5026788;28;20211;-74
2023/10/01 02:34:58;;;;;;;7.43;2.75;;;15.70;99.90;;;;;;5034715;28;20624;-75
2023/10/01 02:37:35;;;;;;;7.28;2.53;;;15.70;99.90;;;;;;5031417;28;20750;-74
2023/10/01 02:40:13;;;;;;;5.28;2.60;;;15.60;99.90;;;;;;5037400;28;20281;-75
2023/10/01 02:42:39;;;;;;;8.15;3.17;;;15.70;99.90;;;;;;5038096;28;20306;-74
2023/10/01 02:45:30;;;;;;;6.60;2.70;;;15.70;99.90;;;;;;5036346;28;20266;-74
2023/10/01 02:48:13;;;;;;;7.75;2.65;;;15.60;99.90;;;;;;5028091;28;20216;-74
2023/10/01 02:50:36;;;;;;;4.30;2.45;;;15.60;99.90;;;;;;5037843;28;20211;-74
2023/10/01 02:53:03;;;;;;;5.97;2.80;;;15.50;99.90;;;;;;5035262;28;20227;-75
2023/10/01 02:55:28;;;;;;;3.97;2.38;;;15.50;99.90;;;;;;5039943;28;20203;-75
2023/10/01 02:58:01;;;;;;;5.47;3.05;;;15.50;99.90;;;;;;5040047;28;20220;-75
2023/10/01 03:00:30;;;;;;;4.80;2.70;;;15.50;99.90;;;;;;5040430;28;20180;-74
2023/10/01 03:02:58;;;;;;;3.67;2.53;;;15.60;99.90;;;;;;5034603;28;20719;-75
2023/10/01 03:07:52;;;;;;;4.22;2.50;;;15.60;99.90;;;;;;5033099;28;20202;-74
2023/10/01 03:10:25;;;;;;;3.47;2.08;;;15.60;99.90;;;;;;5030237;28;20444;-74
2023/10/01 03:12:55;;;;;;;5.57;2.55;;;15.60;99.90;;;;;;5034746;28;20227;-75
2023/10/01 03:15:24;;;;;;;5.75;2.22;;;15.60;99.90;;;;;;5030316;28;20180;-76
2023/10/01 03:18:34;;;;;;;7.32;2.28;;;15.60;99.90;;;;;;5031383;28;20688;-76
2023/10/01 03:26:04;;;;;;;6.18;2.42;;;15.60;99.90;;;;;;5036119;28;20278;-73
2023/10/01 03:31:25;;;;;;;5.97;2.22;;;15.60;99.90;;;;;;5035711;28;20342;-73
2023/10/01 03:33:53;;;;;;;5.90;2.28;;;15.60;99.90;;;;;;5037744;28;20227;-73
2023/10/01 03:36:25;;;;;;;8.30;2.13;;;15.50;99.90;;;;;;5033581;28;20662;-73
2023/10/01 03:38:57;;;;;;;6.15;2.35;;;15.50;99.90;;;;;;5042958;28;20211;-72
2023/10/01 03:41:24;;;;;;;5.05;2.38;;;15.60;99.90;;;;;;5026722;28;20215;-73
2023/10/01 03:43:54;;;;;;;5.53;2.05;;;15.50;99.90;;;;;;5028053;28;20635;-73
2023/10/01 03:46:26;;;;;;;4.85;2.10;;;15.50;99.90;;;;;;5032163;28;20215;-73
2023/10/01 03:49:33;;;;;;;7.18;3.25;;;15.50;99.90;;;;;;5027987;28;20729;-72
2023/10/01 03:51:58;;;;;;;7.53;2.30;;;15.60;99.90;;;;;;5034248;28;20216;-74
2023/10/01 03:57:12;;;;;;;4.88;1.95;;;15.50;99.90;;;;;;5035362;28;20202;-74
2023/10/01 03:59:40;;;;;;;4.50;2.38;;;15.50;99.90;;;;;;5034541;28;20209;-74
2023/10/01 04:02:27;;;;;;;7.03;2.50;;;15.50;99.90;;;;;;5038380;28;20207;-74
2023/10/01 04:04:58;;;;;;;7.47;2.47;;;15.50;99.90;;;;;;5027105;28;20204;-73
2023/10/01 04:07:42;;;;;;;4.40;2.22;;;15.50;99.90;;;;;;5036921;28;20215;-73
2023/10/01 04:10:14;;;;;;;9.18;2.88;;;15.50;99.90;;;;;;5036588;28;20212;-74
2023/10/01 04:12:49;;;;;;;6.65;2.05;;;15.50;99.90;;;;;;5035443;28;20191;-75
2023/10/01 04:15:31;;;;;;;6.45;1.95;;;15.50;99.90;;;;;;5034934;28;20226;-74
2023/10/01 04:21:35;;;;;;;4.03;2.20;;;15.50;99.90;;;;;;5031482;28;20215;-75
2023/10/01 04:23:48;;;;;;;5.72;2.25;;;15.50;99.90;;;;;;5032307;28;20259;-76
2023/10/01 04:26:18;;;;;;;4.72;2.95;;;15.40;99.90;;;;;;5041896;28;20207;-73
2023/10/01 04:28:50;;;;;;;5.63;1.92;;;15.40;99.90;;;;;;5031060;28;20216;-74
2023/10/01 04:31:42;;;;;;;5.07;2.40;;;15.40;99.90;;;;;;5038224;28;20245;-74
2023/10/01 04:34:10;;;;;;;3.78;2.40;;;15.40;99.90;;;;;;5035902;28;20223;-74
2023/10/01 04:36:38;;;;;;;3.80;2.38;;;15.40;99.90;;;;;;5039614;28;20268;-74
2023/10/01 04:39:04;;;;;;;5.22;2.08;;;15.50;99.90;;;;;;5040617;28;20537;-74
2023/10/01 04:41:29;;;;;;;3.25;2.05;;;15.50;99.90;;;;;;5038970;28;20211;-74
2023/10/01 04:44:07;;;;;;;6.28;2.47;;;15.40;99.90;;;;;;5040935;28;20211;-74
2023/10/01 04:46:37;;;;;;;9.18;3.63;;;15.40;99.90;;;;;;5035511;28;20206;-74
2023/10/01 04:49:26;;;;;;;4.13;2.53;;;15.50;99.90;;;;;;5032075;28;20280;-75
2023/10/01 04:51:55;;;;;;;5.57;2.63;;;15.50;99.90;;;;;;5037105;28;20207;-73
2023/10/01 04:54:22;;;;;;;5.93;2.72;;;15.60;99.90;;;;;;5035524;28;20203;-74
2023/10/01 04:56:48;;;;;;;8.43;3.25;;;15.50;99.90;;;;;;5038654;28;20200;-75
2023/10/01 04:59:15;;;;;;;5.88;2.42;;;15.50;99.90;;;;;;5040475;28;20295;-75
2023/10/01 05:01:41;;;;;;;4.15;2.03;;;15.50;99.90;;;;;;5028101;28;20207;-75
2023/10/01 05:04:11;;;;;;;5.70;2.35;;;15.50;99.90;;;;;;5036985;28;20228;-75
2023/10/01 05:06:37;;;;;;;6.80;2.13;;;15.50;99.90;;;;;;5036753;28;20670;-76
2023/10/01 05:09:07;;;;;;;4.80;2.20;;;15.50;99.90;;;;;;5040548;28;20171;-75
2023/10/01 05:11:33;;;;;;;5.88;2.55;;;15.50;99.90;;;;;;5036672;28;20250;-74
2023/10/01 05:13:58;;;;;;;5.10;2.40;;;15.50;99.90;;;;;;5040736;28;20694;-75
2023/10/01 05:16:27;;;;;;;3.42;2.20;;;15.50;99.90;;;;;;5038318;28;20220;-74
2023/10/01 05:19:09;;;;;;;3.40;2.33;;;15.50;99.90;;;;;;5035784;28;20273;-73
2023/10/01 05:21:47;;;;;;;6.55;2.40;;;15.50;99.90;;;;;;5038746;28;20286;-75
2023/10/01 05:24:41;;;;;;;4.90;2.75;;;15.50;99.90;;;;;;5038877;28;20235;-75
2023/10/01 05:27:18;;;;;;;6.47;2.50;;;15.50;99.90;;;;;;5040694;28;20681;-74
2023/10/01 05:29:45;;;;;;;6.35;2.55;;;15.60;99.90;;;;;;5042956;28;20200;-75
2023/10/01 05:32:11;;;;;;;4.70;1.95;;;15.60;99.90;;;;;;5034158;28;20203;-75
2023/10/01 05:34:46;;;;;;;6.13;2.67;;;15.70;99.90;;;;;;5035143;28;20239;-75
2023/10/01 05:37:24;;;;;;;4.30;2.22;;;15.60;99.90;;;;;;5036378;28;20214;-75
2023/10/01 05:39:57;;;;;;;5.70;2.42;;;15.70;99.90;;;;;;5034192;28;20303;-75
2023/10/01 05:42:28;;;;;;;4.32;2.63;;;15.60;99.90;;;;;;5040806;28;20208;-75
2023/10/01 05:44:59;;;;;;;6.13;2.40;;;15.60;99.90;;;;;;5043431;28;20554;-74
2023/10/01 05:47:41;;;;;;;5.93;2.40;;;15.60;99.90;;;;;;5040731;28;20215;-74
2023/10/01 05:50:08;;;;;;;3.45;2.00;;;15.70;99.90;;;;;;5041162;28;20635;-74
2023/10/01 05:52:40;;;;;;;3.47;2.58;;;15.70;99.90;;;;;;5041691;28;20266;-75
2023/10/01 05:55:08;;;;;;;7.70;2.60;;;15.80;99.90;;;;;;5040610;28;20211;-75
2023/10/01 05:57:34;;;;;;;3.97;2.20;;;15.80;99.90;;;;;;5036594;28;20198;-74
2023/10/01 06:00:00;;;;;;;5.03;2.70;;;15.90;99.90;;;;;;5044658;28;20639;-75
2023/10/01 06:02:41;;;;;;;4.85;2.05;;;16.00;99.90;;;;;;5039407;28;20218;-75
2023/10/01 06:05:22;;;;;;;4.63;2.53;;;16.00;99.90;;;;;;5042223;28;20235;-75
2023/10/01 06:07:48;;;;;;;4.85;1.98;;;16.20;99.90;;;;;;5040415;28;20258;-75
2023/10/01 06:10:13;;;;;;;5.60;2.78;;;16.30;99.90;;;;;;5043690;28;20768;-75
2023/10/01 06:12:50;;;;;;;5.45;2.38;;;16.40;99.90;;;;;;5041171;28;20203;-75
2023/10/01 06:15:20;;;;;;;8.63;2.22;;;16.50;99.90;;;;;;5036514;28;20172;-76
2023/10/01 06:17:47;;;;;;;5.88;2.33;;;16.60;99.90;;;;;;5037119;28;20212;-73
2023/10/01 06:20:23;;;;;;;6.63;2.30;;;16.70;99.90;;;;;;5039946;28;20215;-74
2023/10/01 06:22:49;;;;;;;6.10;2.58;;;16.70;99.90;;;;;;5040465;28;20235;-74
2023/10/01 06:25:15;;;;;;;6.40;2.20;;;16.80;99.90;;;;;;5043069;28;20204;-75
2023/10/01 06:27:41;;;;;;;5.03;2.08;;;16.90;99.90;;;;;;5041508;28;20180;-75
2023/10/01 06:30:08;;;;;;;5.05;2.58;;;16.90;99.90;;;;;;5044825;28;20175;-76
2023/10/01 06:32:34;;;;;;;2.75;1.73;;;17.00;99.90;;;;;;5040871;28;20204;-75
2023/10/01 06:35:02;;;;;;;4.28;2.38;;;17.10;99.90;;;;;;5044682;28;20203;-75
2023/10/01 06:37:50;;;;;;;3.13;2.47;;;17.20;99.90;;;;;;5029257;28;20414;-75
2023/10/01 06:40:30;;;;;;;3.88;1.92;;;17.10;99.90;;;;;;5042835;28;20207;-76
2023/10/01 06:43:00;;;;;;;4.10;1.98;;;17.30;99.90;;;;;;5035765;28;20220;-75
2023/10/01 06:45:44;;;;;;;3.08;2.08;;;17.30;99.90;;;;;;5041856;28;20180;-75
2023/10/01 06:48:09;;;;;;;4.65;1.80;;;17.50;99.90;;;;;;5038065;28;20530;-76
2023/10/01 06:50:44;;;;;;;6.10;1.90;;;17.60;99.90;;;;;;5041131;28;20219;-75
2023/10/01 06:53:10;;;;;;;4.05;2.30;;;17.70;99.90;;;;;;5043449;28;20289;-77
2023/10/01 06:55:36;;;;;;;6.28;2.47;;;17.80;99.90;;;;;;5038385;28;20212;-76
2023/10/01 06:58:07;;;;;;;3.65;2.13;;;17.90;99.90;;;;;;5032757;28;20330;-76
2023/10/01 07:00:35;;;;;;;3.47;1.98;;;18.00;99.90;;;;;;5040955;28;20209;-76
2023/10/01 07:03:18;;;;;;;4.80;2.15;;;18.10;99.90;;;;;;5041824;28;20284;-77
2023/10/01 07:05:45;;;;;;;4.30;1.77;;;18.90;99.90;;;;;;5038096;28;20686;-76
2023/10/01 07:08:12;;;;;;;4.47;2.05;;;19.90;99.90;;;;;;5042387;28;20215;-76
2023/10/01 07:10:38;;;;;;;4.15;1.98;;;20.60;99.90;;;;;;5039734;28;20212;-76
2023/10/01 07:13:07;;;;;;;1.60;1.50;;;21.10;99.90;;;;;;5042250;28;20657;-77
2023/10/01 07:15:40;;;;;;;3.88;1.90;;;21.30;99.90;;;;;;5037722;28;20176;-76
2023/10/01 07:18:16;;;;;;;4.20;1.80;;;21.10;99.90;;;;;;5035844;28;20719;-76
2023/10/01 07:20:49;;;;;;;3.75;1.70;;;21.00;99.90;;;;;;5039711;28;20267;-74
2023/10/01 07:23:15;;;;;;;4.90;1.80;;;21.30;99.90;;;;;;5027081;28;20212;-75
2023/10/01 07:25:43;;;;;;;5.70;2.10;;;21.60;99.90;;;;;;5010494;28;20717;-76
2023/10/01 07:28:18;;;;;;;6.40;2.05;;;21.70;99.90;;;;;;5015585;28;20204;-76
2023/10/01 07:30:51;;;;;;;3.20;1.83;;;21.90;99.90;;;;;;5018647;28;20709;-76
2023/10/01 07:33:17;;;;;;;4.65;1.98;;;22.50;99.90;;;;;;5027610;28;20232;-76
2023/10/01 07:35:45;;;;;;;3.83;2.25;;;23.00;99.90;;;;;;5032549;28;20266;-75
2023/10/01 07:38:14;;;;;;;8.25;1.85;;;23.20;99.90;;;;;;5035244;28;20200;-75
2023/10/01 07:43:37;;;;;;;3.85;1.95;;;23.60;99.90;;;;;;5024783;28;20856;-77
2023/10/01 07:46:07;;;;;;;4.20;2.25;;;24.30;99.90;;;;;;5027825;28;20275;-77
2023/10/01 07:48:33;;;;;;;4.35;1.70;;;24.90;99.90;;;;;;5030882;28;20172;-76
2023/10/01 07:51:02;;;;;;;3.25;1.63;;;25.40;99.90;;;;;;5035432;28;20563;-77
2023/10/01 07:53:32;;;;;;;2.97;1.67;;;25.70;99.90;;;;;;5030635;28;20776;-77
2023/10/01 07:56:02;;;;;;;5.28;2.17;;;25.40;99.90;;;;;;5028536;28;20204;-76
2023/10/01 07:58:47;;;;;;;6.25;1.80;;;26.00;99.90;;;;;;5033341;28;20208;-77
2023/10/01 08:04:05;;;;;;;5.75;1.58;;;26.20;99.90;;;;;;5033003;28;20230;-78
2023/10/01 08:06:34;;;;;;;4.15;1.98;;;25.30;99.90;;;;;;5034674;28;20686;-78
2023/10/01 08:09:01;;;;;;;4.15;2.25;;;24.30;99.90;;;;;;5031196;28;20222;-78
2023/10/01 08:14:11;;;;;;;5.53;1.77;;;22.60;99.90;;;;;;5030008;28;20368;-77
2023/10/01 08:16:50;;;;;;;4.43;1.83;;;21.90;99.90;;;;;;5029147;28;20208;-76
2023/10/01 08:19:20;;;;;;;2.85;1.75;;;21.50;99.90;;;;;;5027423;28;20200;-77
2023/10/01 08:21:50;;;;;;;4.20;1.90;;;21.00;99.90;;;;;;5031524;28;20257;-77
2023/10/01 08:24:20;;;;;;;4.85;1.75;;;20.50;99.90;;;;;;5033637;28;20622;-77
2023/10/01 08:26:57;;;;;;;3.85;1.90;;;20.20;99.90;;;;;;5031190;28;20211;-77
2023/10/01 08:29:28;;;;;;;3.05;1.67;;;20.10;99.90;;;;;;5022924;28;20355;-76
2023/10/01 08:34:23;;;;;;;4.30;1.98;;;19.90;99.90;;;;;;5012949;28;20294;-76
2023/10/01 08:36:56;;;;;;;5.43;2.15;;;19.80;99.90;;;;;;5013596;28;20819;-78
2023/10/01 08:42:10;;;;;;;8.13;2.55;;;19.50;99.90;;;;;;5032010;28;20216;-77
2023/10/01 08:44:49;;;;;;;3.40;1.80;;;19.60;99.90;;;;;;5031303;28;20722;-76
2023/10/01 08:47:34;;;;;;;3.42;2.30;;;19.50;99.90;;;;;;5033469;28;20269;-76
2023/10/01 08:50:17;;;;;;;3.60;1.90;;;19.50;99.90;;;;;;5028155;28;20204;-77
2023/10/01 08:52:58;;;;;;;5.68;1.77;;;19.60;99.90;;;;;;5030778;28;20203;-78
2023/10/01 08:55:39;;;;;;;2.95;2.00;;;19.50;99.90;;;;;;5033383;28;20206;-77
2023/10/01 09:00:49;;;;;;;4.32;1.90;;;19.80;99.90;;;;;;5034024;28;20205;-78
2023/10/01 09:03:26;;;;;;;4.68;2.13;;;19.90;99.90;;;;;;5034359;28;20291;-77
2023/10/01 09:06:01;;;;;;;4.38;2.15;;;19.80;99.90;;;;;;5035159;28;20580;-76
2023/10/01 09:08:31;;;;;;;4.30;1.98;;;19.70;99.90;;;;;;5036969;28;20212;-78
2023/10/01 09:10:59;;;;;;;4.10;2.10;;;19.70;99.90;;;;;;5034572;28;20217;-78
2023/10/01 09:13:26;;;;;;;3.97;1.98;;;19.70;99.90;;;;;;5033195;28;20295;-78
2023/10/01 09:15:56;;;;;;;4.07;1.85;;;19.70;99.90;;;;;;5028049;28;20208;-75
2023/10/01 09:18:23;;;;;;;3.28;2.00;;;19.80;99.90;;;;;;5039198;28;20180;-77
2023/10/01 09:21:08;;;;;;;5.88;3.13;;;19.90;99.90;;;;;;5034789;28;20223;-77
2023/10/01 09:23:54;;;;;;;5.75;2.80;;;19.90;99.90;;;;;;5035354;28;20685;-78
2023/10/01 09:26:53;;;;;;;4.32;2.58;;;19.80;99.90;;;;;;5023983;28;20626;-78
2023/10/01 09:29:23;;;;;;;5.45;2.67;;;19.80;99.90;;;;;;5042021;28;20202;-76
2023/10/01 09:31:56;;;;;;;4.38;1.90;;;19.90;99.90;;;;;;5037910;28;20277;-76
2023/10/01 09:34:35;;;;;;;5.28;2.67;;;20.00;99.90;;;;;;5037217;28;20220;-76
2023/10/01 09:37:01;;;;;;;6.63;3.10;;;20.30;99.90;;;;;;5041669;28;20212;-76
2023/10/01 09:39:43;;;;;;;4.30;2.20;;;20.70;99.90;;;;;;5041123;28;20187;-75
2023/10/01 09:42:22;;;;;;;4.20;2.50;;;21.20;99.90;;;;;;5040453;28;20204;-77
2023/10/01 09:44:53;;;;;;;4.25;2.70;;;21.50;99.90;;;;;;5033911;28;20256;-77
2023/10/01 09:47:27;;;;;;;7.10;3.45;;;22.00;99.90;;;;;;5038755;28;20231;-77
2023/10/01 09:49:54;;;;;;;5.53;2.63;;;22.30;99.90;;;;;;5031815;28;20550;-76
2023/10/01 09:52:30;;;;;;;4.45;2.35;;;22.60;99.90;;;;;;5034018;28;20204;-77
2023/10/01 09:55:09;;;;;;;8.00;2.75;;;22.80;99.90;;;;;;5043191;28;20218;-78
2023/10/01 09:57:37;;;;;;;4.07;2.38;;;23.00;99.90;;;;;;5043358;28;20680;-77
2023/10/01 10:00:39;;;;;;;6.45;2.33;;;22.80;99.90;;;;;;5037836;28;20176;-77
2023/10/01 10:02:53;;;;;;;6.68;2.55;;;23.00;99.90;;;;;;5036764;28;20310;-78
2023/10/01 10:05:26;;;;;;;7.30;3.70;;;23.20;99.90;;;;;;5045078;28;20266;-78
2023/10/01 10:08:13;;;;;;;7.00;2.97;;;23.20;99.90;;;;;;5038876;28;20203;-77
2023/10/01 10:10:52;;;;;;;5.20;2.53;;;23.20;99.90;;;;;;5035981;28;20204;-79
2023/10/01 10:13:45;;;;;;;4.78;2.20;;;23.30;99.90;;;;;;5041551;28;20231;-78
2023/10/01 10:16:30;;;;;;;6.28;2.55;;;23.20;99.90;;;;;;5030093;28;20225;-79
2023/10/01 10:19:20;;;;;;;5.95;2.47;;;23.40;99.90;;;;;;5041820;28;20232;-79
2023/10/01 10:22:25;;;;;;;5.20;2.58;;;23.40;99.90;;;;;;5040497;28;20222;-79
2023/10/01 10:24:50;;;;;;;4.80;2.30;;;23.60;99.90;;;;;;5037185;28;20235;-77
2023/10/01 10:27:25;;;;;;;3.90;2.45;;;23.60;99.90;;;;;;5035335;28;20182;-77
2023/10/01 10:29:56;;;;;;;5.82;2.55;;;23.70;99.90;;;;;;5034930;28;20562;-77
2023/10/01 10:32:28;;;;;;;6.07;3.30;;;23.60;99.90;;;;;;5036774;28;20213;-76
2023/10/01 10:35:06;;;;;;;6.47;3.90;;;23.50;99.90;;;;;;5039741;28;20235;-77
2023/10/01 10:37:35;;;;;;;8.90;3.38;;;23.10;99.90;;;;;;5035074;28;20208;-77
2023/10/01 10:43:16;;;;;;;6.32;3.35;;;23.30;99.90;;;;;;5039331;28;20226;-77
2023/10/01 10:45:57;;;;;;;5.85;3.03;;;23.20;99.90;;;;;;5041636;28;20215;-77
2023/10/01 10:48:49;;;;;;;4.57;2.90;;;23.00;99.90;;;;;;5040816;28;20175;-77
2023/10/01 10:51:45;;;;;;;4.78;2.65;;;23.00;99.90;;;;;;5044602;28;20184;-77
2023/10/01 10:54:16;;;;;;;6.13;2.85;;;23.10;99.90;;;;;;5018787;28;20222;-77
2023/10/01 10:56:44;;;;;;;8.65;4.05;;;23.10;99.90;;;;;;5035197;28;20774;-77
2023/10/01 10:59:10;;;;;;;7.03;3.40;;;23.20;99.90;;;;;;5041231;28;20827;-77
2023/10/01 11:01:46;;;;;;;4.47;3.00;;;23.20;99.90;;;;;;5040552;28;20212;-77
2023/10/01 11:04:14;;;;;;;3.80;2.45;;;22.80;99.90;;;;;;5039339;28;20211;-77
2023/10/01 11:06:41;;;;;;;8.65;3.33;;;22.70;99.90;;;;;;5041862;28;20172;-77
2023/10/01 11:09:25;;;;;;;5.38;3.22;;;22.70;99.90;;;;;;5040575;28;20172;-77
2023/10/01 11:12:21;;;;;;;5.40;3.55;;;22.70;99.90;;;;;;5040873;28;20221;-77
2023/10/01 11:15:19;;;;;;;9.18;4.63;;;22.80;99.90;;;;;;5039986;28;20203;-78
2023/10/01 11:17:49;;;;;;;4.80;2.72;;;22.80;99.90;;;;;;5033484;28;20212;-77
2023/10/01 11:20:22;;;;;;;6.88;3.20;;;22.90;99.90;;;;;;5040618;28;20300;-77
2023/10/01 11:22:54;;;;;;;5.10;2.63;;;22.80;99.90;;;;;;5034255;28;20220;-77
2023/10/01 11:25:22;;;;;;;6.32;2.72;;;22.80;99.90;;;;;;5026159;28;20265;-80
2023/10/01 11:28:05;;;;;;;5.45;2.80;;;22.60;99.90;;;;;;5040950;28;20239;-79
2023/10/01 11:30:42;;;;;;;4.82;2.50;;;22.30;99.90;;;;;;5035908;28;20177;-77
2023/10/01 11:36:07;;;;;;;4.63;2.60;;;22.00;99.90;;;;;;5019298;28;20205;-78
2023/10/01 11:38:35;;;;;;;5.20;2.05;;;22.10;99.90;;;;;;5026368;28;20296;-78
2023/10/01 11:41:06;;;;;;;4.55;2.50;;;22.40;99.90;;;;;;5032140;28;20296;-78
2023/10/01 11:43:45;;;;;;;5.57;2.60;;;22.50;99.90;;;;;;5031437;28;20216;-78
2023/10/01 11:46:26;;;;;;;5.28;2.22;;;22.50;99.90;;;;;;5026074;28;20211;-75
2023/10/01 11:48:56;;;;;;;4.72;2.45;;;22.50;99.90;;;;;;5031338;28;20218;-76
2023/10/01 11:51:41;;;;;;;7.50;2.60;;;22.60;99.90;;;;;;5030287;28;20204;-76
2023/10/01 11:54:10;;;;;;;3.20;2.17;;;22.50;99.90;;;;;;5028054;28;20196;-77
2023/10/01 11:56:46;;;;;;;5.03;2.38;;;22.70;99.90;;;;;;5032513;28;20208;-76
2023/10/01 11:59:19;;;;;;;6.47;2.40;;;22.60;99.90;;;;;;5032711;28;20624;-75
2023/10/01 12:01:47;;;;;;;5.22;2.00;;;22.60;99.90;;;;;;5031299;28;20339;-76
2023/10/01 12:04:43;;;;;;;5.80;2.10;;;22.70;99.90;;;;;;5030769;28;20212;-75
2023/10/01 12:07:17;;;;;;;3.55;2.15;;;22.70;99.90;;;;;;5028496;28;20579;-76
2023/10/01 12:09:52;;;;;;;5.47;2.95;;;22.80;99.90;;;;;;5032261;28;20209;-76
2023/10/01 12:12:19;;;;;;;5.32;2.17;;;22.90;99.90;;;;;;5031523;28;20191;-74
2023/10/01 12:14:55;;;;;;;5.18;2.70;;;22.80;99.90;;;;;;5028063;28;20261;-76
2023/10/01 12:17:28;;;;;;;3.70;2.50;;;22.50;99.90;;;;;;5030500;28;20218;-77
2023/10/01 12:19:59;;;;;;;3.85;2.67;;;22.50;99.90;;;;;;5030540;28;20222;-76
2023/10/01 12:22:29;;;;;;;4.57;2.72;;;22.40;99.90;;;;;;5029431;28;20216;-74
2023/10/01 12:24:57;;;;;;;3.88;2.10;;;22.20;99.90;;;;;;5031543;28;20219;-75
2023/10/01 12:27:37;;;;;;;4.78;2.22;;;22.20;99.90;;;;;;5031843;28;20215;-77
2023/10/01 12:30:11;;;;;;;3.70;1.90;;;22.10;99.90;;;;;;5031902;28;20181;-77
2023/10/01 12:32:42;;;;;;;3.15;1.88;;;22.30;99.90;;;;;;5029250;28;20216;-79
2023/10/01 12:35:20;;;;;;;4.13;1.70;;;22.40;99.90;;;;;;5030538;28;20219;-80
2023/10/01 12:37:45;;;;;;;4.93;1.80;;;22.30;99.90;;;;;;5030301;28;20207;-79
2023/10/01 12:40:16;;;;;;;2.55;1.67;;;22.40;99.90;;;;;;5031462;28;20209;-80
2023/10/01 12:42:50;;;;;;;5.88;2.15;;;22.40;99.90;;;;;;5038724;28;20224;-80
2023/10/01 12:45:27;;;;;;;4.07;2.00;;;22.30;99.90;;;;;;5034064;28;20197;-79
2023/10/01 12:47:53;;;;;;;3.05;1.63;;;22.30;99.90;;;;;;5031250;28;20322;-76
2023/10/01 12:50:26;;;;;;;4.35;2.00;;;22.10;99.90;;;;;;5033321;28;20991;-79
2023/10/01 12:55:40;;;;;;;4.72;1.75;;;22.00;99.90;;;;;;5036421;28;20295;-80
2023/10/01 12:58:06;;;;;;;5.47;2.03;;;21.90;99.90;;;;;;5032824;28;20313;-79
2023/10/01 13:00:45;;;;;;;3.75;2.40;;;22.00;99.90;;;;;;5034483;28;20172;-80
2023/10/01 13:03:16;;;;;;;5.40;1.98;;;22.00;99.90;;;;;;5032533;28;20207;-78
2023/10/01 13:05:45;;;;;;;4.40;2.10;;;22.10;99.90;;;;;;5026770;28;20682;-78
2023/10/01 13:08:11;;;;;;;5.07;1.80;;;22.20;99.90;;;;;;5036333;28;20286;-78
2023/10/01 13:10:38;;;;;;;4.13;1.77;;;22.30;99.90;;;;;;5034079;28;20227;-79
2023/10/01 13:13:05;;;;;;;8.38;2.38;;;22.20;99.90;;;;;;5027650;28;20300;-78
2023/10/01 13:15:36;;;;;;;5.53;2.03;;;22.00;99.90;;;;;;5030703;28;20265;-79
2023/10/01 13:18:18;;;;;;;3.92;2.05;;;22.00;99.90;;;;;;5030520;28;20183;-80
2023/10/01 13:23:16;;;;;;;4.20;1.80;;;21.70;99.90;;;;;;5030163;28;20742;-79
2023/10/01 13:25:47;;;;;;;2.72;1.73;;;21.70;99.90;;;;;;5029148;28;20247;-79
2023/10/01 13:28:20;;;;;;;6.95;2.35;;;21.70;99.90;;;;;;5029768;28;20224;-78
2023/10/01 13:33:25;;;;;;;4.30;1.90;;;21.80;99.90;;;;;;5030535;28;20596;-78
2023/10/01 13:35:58;;;;;;;5.25;2.25;;;22.00;99.90;;;;;;5029230;28;20195;-81
2023/10/01 14:11:06;;;;;;;2.53;1.35;;;21.70;99.90;;;;;;5039780;28;20650;-79
2023/10/01 14:13:35;;;;;;;4.15;1.73;;;21.70;99.90;;;;;;5038346;28;20597;-79
2023/10/01 14:16:17;;;;;;;5.38;2.30;;;21.70;99.90;;;;;;5041847;28;20475;-79
2023/10/01 14:18:57;;;;;;;4.30;1.80;;;21.50;99.90;;;;;;5037962;28;20208;-79
2023/10/01 14:21:27;;;;;;;3.83;1.85;;;21.40;99.90;;;;;;5038980;28;20181;-80
2023/10/01 14:24:21;;;;;;;3.10;1.70;;;21.40;99.90;;;;;;5046261;28;20191;-78
2023/10/01 14:26:46;;;;;;;4.07;1.63;;;21.30;99.90;;;;;;5047267;28;20711;-79
2023/10/01 14:29:22;;;;;;;4.07;1.67;;;21.10;99.90;;;;;;5044298;28;20212;-78
2023/10/01 14:31:54;;;;;;;2.55;1.58;;;21.00;99.90;;;;;;5044274;28;20211;-79
2023/10/01 14:34:20;;;;;;;2.75;1.42;;;21.10;99.90;;;;;;5044607;28;20251;-79
2023/10/01 14:36:48;;;;;;;3.17;1.55;;;21.10;99.90;;;;;;5043323;28;21268;-79
2023/10/01 14:39:14;;;;;;;3.90;1.90;;;21.10;99.90;;;;;;5032565;28;20191;-79